Time;durP1;ratioP1;P1;durP2;ratioP2;P2;SDS_P1;SDS_P2;PMS_P1;PMS_P2;Temp;Humidity;BMP_temperature;BMP_pressure;BME280_temperature;BME280_humidity;BME280_pressure;Samples;Min_cycle;Max_cycle;Signal;HPM_P1;HPM_P2
2021/12/23 00:01:30;;;;;;;10.60;10.00;;;;;;;-1.51;91.39;101611.97;5036213;28;20528;-72
2021/12/23 00:03:57;;;;;;;0.40;0.30;;;;;;;-1.47;91.29;101615.88;5036167;28;20475;-72
2021/12/23 00:06:23;;;;;;;0.40;0.30;;;;;;;-1.43;91.66;101603.00;5036133;28;20793;-72
2021/12/23 00:08:50;;;;;;;0.40;0.30;;;;;;;-1.39;92.17;101597.13;5035891;28;20440;-73
2021/12/23 00:11:16;;;;;;;0.40;0.30;;;;;;;-1.38;91.76;101596.09;5035780;28;20936;-72
2021/12/23 00:13:49;;;;;;;0.40;0.30;;;;;;;-1.36;91.47;101595.91;5036024;28;20471;-72
2021/12/23 00:16:18;;;;;;;0.40;0.30;;;;;;;-1.35;91.34;101593.03;5036031;28;20435;-73
2021/12/23 00:18:53;;;;;;;0.40;0.30;;;;;;;-1.43;91.49;101587.91;5035591;28;20860;-72
2021/12/23 00:24:18;;;;;;;0.40;0.30;;;;;;;-1.31;92.49;101582.84;4974759;28;20967;-72
2021/12/23 00:26:45;;;;;;;0.40;0.30;;;;;;;-1.28;92.54;101580.63;4974695;28;20446;-72
2021/12/23 00:29:11;;;;;;;0.40;0.30;;;;;;;-1.22;92.96;101578.19;5000735;28;20446;-72
2021/12/23 00:31:37;;;;;;;0.40;0.30;;;;;;;-1.21;93.22;101582.47;5035754;28;20450;-72
2021/12/23 00:34:05;;;;;;;0.40;0.30;;;;;;;-1.16;93.00;101578.19;5035194;28;20474;-73
2021/12/23 00:36:32;;;;;;;0.40;0.30;;;;;;;-1.08;93.02;101579.88;5035922;28;20447;-72
2021/12/23 00:39:01;;;;;;;0.40;0.30;;;;;;;-1.03;92.98;101578.25;5035484;28;20491;-72
2021/12/23 00:41:30;;;;;;;0.40;0.30;;;;;;;-0.99;92.86;101575.19;5034731;28;20972;-73
2021/12/23 00:43:57;;;;;;;0.60;0.60;;;;;;;-0.91;92.83;101578.50;5034850;28;21058;-73
2021/12/23 00:46:23;;;;;;;0.40;0.30;;;;;;;-1.00;92.83;101568.25;5035102;28;20852;-71
2021/12/23 00:48:50;;;;;;;0.40;0.30;;;;;;;-0.94;92.27;101559.47;5035258;28;20439;-68
2021/12/23 00:51:19;;;;;;;0.40;0.30;;;;;;;-1.00;90.94;101563.75;5034635;28;20504;-67
2021/12/23 00:53:49;;;;;;;0.40;0.30;;;;;;;-1.03;90.51;101558.81;5035054;28;20471;-72
2021/12/23 00:56:15;;;;;;;0.40;0.30;;;;;;;-1.08;90.17;101563.91;5035347;28;20474;-72
2021/12/23 00:58:42;;;;;;;0.40;0.30;;;;;;;-1.16;90.24;101548.16;5035145;28;20451;-72
2021/12/23 01:01:09;;;;;;;2.93;2.83;;;;;;;-1.12;90.39;101542.22;5035050;28;20496;-72
2021/12/23 01:03:35;;;;;;;0.40;0.30;;;;;;;-1.16;90.16;101538.31;5035131;28;20525;-72
2021/12/23 01:06:03;;;;;;;8.60;8.00;;;;;;;-1.13;90.59;101540.59;5035044;28;20447;-72
2021/12/23 01:08:31;;;;;;;0.40;0.30;;;;;;;-1.13;90.60;101539.78;5034707;28;20932;-72
2021/12/23 01:10:59;;;;;;;3.90;3.70;;;;;;;-1.02;90.55;101531.22;5034637;28;20447;-72
2021/12/23 01:13:28;;;;;;;0.43;0.30;;;;;;;-0.91;90.83;101535.13;5034825;28;20825;-72
2021/12/23 01:16:01;;;;;;;0.40;0.30;;;;;;;-0.96;90.10;101529.59;5034878;28;20466;-72
2021/12/23 01:18:31;;;;;;;0.40;0.30;;;;;;;-1.05;89.56;101535.09;5035004;28;20423;-73
2021/12/23 01:21:15;;;;;;;0.40;0.30;;;;;;;-1.05;89.73;101544.91;5034753;28;20485;-72
2021/12/23 01:23:44;;;;;;;0.40;0.30;;;;;;;-0.99;90.31;101541.44;5034782;28;20489;-73
2021/12/23 01:26:17;;;;;;;0.40;0.30;;;;;;;-0.97;90.52;101536.75;5034702;28;20450;-72
2021/12/23 01:28:44;;;;;;;1.03;0.97;;;;;;;-1.00;90.56;101536.34;5034911;28;20431;-73
2021/12/23 01:31:10;;;;;;;0.40;0.30;;;;;;;-1.00;90.60;101536.34;5034607;28;20442;-73
2021/12/23 01:33:36;;;;;;;0.50;0.47;;;;;;;-1.05;90.93;101534.28;5034283;28;20489;-73
2021/12/23 01:36:03;;;;;;;0.40;0.30;;;;;;;-1.05;90.73;101523.66;5034369;28;20446;-73
2021/12/23 01:38:30;;;;;;;0.40;0.30;;;;;;;-0.96;90.68;101527.75;5034175;28;20444;-73
2021/12/23 01:40:57;;;;;;;0.70;0.40;;;;;;;-1.03;90.21;101522.41;5034315;28;20487;-73
2021/12/23 01:43:24;;;;;;;0.40;0.30;;;;;;;-1.04;90.50;101526.09;5033974;28;20960;-73
2021/12/23 01:45:51;;;;;;;0.40;0.30;;;;;;;-1.08;90.36;101516.88;5034232;28;20451;-73
2021/12/23 01:48:19;;;;;;;30.50;27.80;;;;;;;-1.11;90.70;101508.47;5034259;28;20450;-73
2021/12/23 01:50:47;;;;;;;0.40;0.30;;;;;;;-1.09;89.07;101517.09;5034163;28;20432;-73
2021/12/23 01:53:16;;;;;;;0.40;0.30;;;;;;;-1.10;88.93;101516.28;5033676;28;20438;-73
2021/12/23 01:55:44;;;;;;;0.40;0.30;;;;;;;-1.17;89.50;101511.97;5034124;28;20443;-73
2021/12/23 01:58:13;;;;;;;0.40;0.30;;;;;;;-1.13;88.96;101505.22;5034053;28;20443;-73
2021/12/23 02:00:41;;;;;;;0.40;0.30;;;;;;;-1.09;89.40;101503.81;5033828;28;20491;-73
2021/12/23 02:03:08;;;;;;;0.40;0.30;;;;;;;-1.12;89.78;101498.88;5032415;28;20581;-73
2021/12/23 02:05:34;;;;;;;0.40;0.33;;;;;;;-1.09;89.63;101498.50;5033054;28;20936;-73
2021/12/23 02:08:01;;;;;;;0.40;0.30;;;;;;;-1.10;89.69;101492.34;5033884;28;20469;-73
2021/12/23 02:10:28;;;;;;;10.83;9.83;;;;;;;-1.09;89.13;101486.00;5033571;28;20971;-73
2021/12/23 02:12:55;;;;;;;0.40;0.30;;;;;;;-1.12;88.78;101488.25;5033903;28;20450;-74
2021/12/23 02:15:24;;;;;;;0.40;0.30;;;;;;;-1.18;88.60;101473.13;5033700;28;20891;-73
2021/12/23 02:17:51;;;;;;;0.50;0.30;;;;;;;-1.09;89.28;101463.94;5033702;28;20447;-73
2021/12/23 02:20:21;;;;;;;0.40;0.30;;;;;;;-1.05;89.37;101462.50;5033589;28;20478;-73
2021/12/23 02:22:48;;;;;;;0.40;0.30;;;;;;;-1.01;89.52;101466.41;5033654;28;20469;-73
2021/12/23 02:25:16;;;;;;;0.40;0.30;;;;;;;-0.96;88.88;101460.47;5033793;28;20474;-73
2021/12/23 02:27:43;;;;;;;0.40;0.30;;;;;;;-0.99;89.52;101469.66;5033564;28;20455;-73
2021/12/23 02:30:13;;;;;;;0.40;0.30;;;;;;;-1.04;88.96;101461.47;5033501;28;20443;-73
2021/12/23 02:32:40;;;;;;;0.40;0.30;;;;;;;-1.00;89.46;101449.41;5033472;28;20434;-73
2021/12/23 02:35:11;;;;;;;0.40;0.30;;;;;;;-0.95;89.22;101444.31;5033099;28;20479;-73
2021/12/23 02:37:39;;;;;;;0.40;0.30;;;;;;;-0.93;89.50;101429.00;5033401;28;20452;-73
2021/12/23 02:40:07;;;;;;;0.40;0.30;;;;;;;-0.90;89.80;101425.91;5033291;28;20490;-73
2021/12/23 02:42:33;;;;;;;0.40;0.40;;;;;;;-0.90;90.34;101419.75;5033047;28;20957;-73
2021/12/23 02:45:01;;;;;;;0.60;0.60;;;;;;;-0.89;90.25;101410.75;5033169;28;20463;-73
2021/12/23 02:47:28;;;;;;;0.40;0.30;;;;;;;-0.91;90.60;101403.00;5033587;28;20665;-73
2021/12/23 02:49:54;;;;;;;2.40;2.30;;;;;;;-0.90;90.89;101399.31;5033323;28;20435;-73
2021/12/23 02:52:20;;;;;;;0.80;0.80;;;;;;;-0.88;90.79;101389.31;5033573;28;20450;-73
2021/12/23 02:54:56;;;;;;;0.40;0.30;;;;;;;-0.85;90.69;101375.56;5033145;28;20938;-73
2021/12/23 02:57:23;;;;;;;0.40;0.30;;;;;;;-0.72;90.21;101374.75;5033235;28;20438;-73
2021/12/23 02:59:49;;;;;;;0.40;0.30;;;;;;;-0.84;88.42;101366.59;5032802;28;21038;-73
2021/12/23 03:02:16;;;;;;;0.40;0.30;;;;;;;-0.84;88.22;101374.56;5033041;28;20431;-73
2021/12/23 03:04:42;;;;;;;0.40;0.30;;;;;;;-0.85;88.25;101375.56;5033139;28;20870;-73
2021/12/23 03:07:09;;;;;;;0.40;0.30;;;;;;;-0.79;88.33;101372.09;5033166;28;20450;-73
2021/12/23 03:09:35;;;;;;;0.40;0.30;;;;;;;-0.84;87.77;101369.25;5033212;28;20455;-73
2021/12/23 03:12:04;;;;;;;0.40;0.30;;;;;;;-0.88;87.62;101360.06;5033272;28;20439;-73
2021/12/23 03:14:31;;;;;;;0.40;0.30;;;;;;;-0.83;87.94;101352.28;5036443;28;20467;-73
2021/12/23 03:16:57;;;;;;;0.40;0.30;;;;;;;-0.90;87.66;101334.69;5037105;28;20845;-73
2021/12/23 03:19:23;;;;;;;0.40;0.30;;;;;;;-0.90;87.68;101338.16;5037015;28;20497;-72
2021/12/23 03:21:50;;;;;;;0.40;0.30;;;;;;;-0.92;87.89;101332.22;5036698;28;20964;-72
2021/12/23 03:24:16;;;;;;;0.40;0.30;;;;;;;-0.96;87.66;101323.03;5036905;28;20513;-72
2021/12/23 03:26:43;;;;;;;0.40;0.30;;;;;;;-0.94;87.83;101318.31;5036675;28;20462;-72
2021/12/23 03:29:11;;;;;;;2.73;2.57;;;;;;;-0.95;87.98;101311.38;5036914;28;20450;-72
2021/12/23 03:31:37;;;;;;;0.40;0.30;;;;;;;-0.87;87.50;101311.16;5036486;28;20824;-72
2021/12/23 03:34:04;;;;;;;0.40;0.30;;;;;;;-0.86;88.13;101302.16;5036467;28;20478;-72
2021/12/23 03:36:31;;;;;;;0.40;0.30;;;;;;;-0.84;88.25;101308.09;5037197;28;20446;-72
2021/12/23 03:38:57;;;;;;;0.40;0.30;;;;;;;-0.77;88.51;101306.22;5036765;28;20443;-72
2021/12/23 03:41:24;;;;;;;0.40;0.30;;;;;;;-0.79;88.25;101297.66;5036572;28;20487;-72
2021/12/23 03:43:50;;;;;;;0.40;0.30;;;;;;;-0.79;88.16;101296.84;5036542;28;20509;-72
2021/12/23 03:46:18;;;;;;;0.40;0.30;;;;;;;-0.81;88.80;101288.22;5036591;28;20442;-71
2021/12/23 03:48:45;;;;;;;0.40;0.30;;;;;;;-0.87;89.79;101281.91;5036537;28;20447;-72
2021/12/23 03:51:11;;;;;;;0.40;0.30;;;;;;;-0.80;89.02;101272.09;5036507;28;20872;-72
2021/12/23 03:53:38;;;;;;;0.70;0.70;;;;;;;-0.84;88.11;101265.53;5036405;28;20463;-72
2021/12/23 03:56:04;;;;;;;0.40;0.30;;;;;;;-0.82;87.35;101252.84;5036502;28;20450;-72
2021/12/23 03:58:31;;;;;;;0.40;0.30;;;;;;;-0.77;87.39;101247.72;5036370;28;20451;-72
2021/12/23 04:00:58;;;;;;;0.40;0.30;;;;;;;-0.71;87.43;101259.34;5036249;28;20478;-72
2021/12/23 04:03:26;;;;;;;0.40;0.30;;;;;;;-0.74;87.38;101253.66;5036155;28;20984;-72
2021/12/23 04:05:52;;;;;;;0.40;0.30;;;;;;;-0.81;87.27;101232.38;5036490;28;20434;-72
2021/12/23 04:08:19;;;;;;;0.40;0.30;;;;;;;-0.81;86.92;101232.38;5036238;28;20450;-72
2021/12/23 04:10:45;;;;;;;0.40;0.30;;;;;;;-0.83;87.03;101229.94;5036281;28;20523;-72
2021/12/23 04:13:12;;;;;;;0.40;0.30;;;;;;;-0.87;86.92;101231.38;5036036;28;20445;-72
2021/12/23 04:15:38;;;;;;;0.50;0.40;;;;;;;-0.78;87.60;101240.75;5036058;28;20451;-72
2021/12/23 04:18:05;;;;;;;0.40;0.30;;;;;;;-0.72;87.75;101241.75;5035943;28;20444;-72
2021/12/23 04:20:35;;;;;;;0.40;0.30;;;;;;;-0.64;87.82;101232.75;5035532;28;20491;-72
2021/12/23 04:23:04;;;;;;;0.40;0.30;;;;;;;-0.68;86.63;101234.19;5035924;28;20614;-72
2021/12/23 04:25:30;;;;;;;0.40;0.30;;;;;;;-0.76;86.85;101225.41;5034884;28;20491;-72
2021/12/23 04:28:01;;;;;;;0.40;0.30;;;;;;;-0.78;86.93;101222.16;5035880;28;20443;-72
2021/12/23 04:30:27;;;;;;;0.80;0.80;;;;;;;-0.73;86.44;101213.53;5035828;28;20424;-72
2021/12/23 04:32:56;;;;;;;0.40;0.30;;;;;;;-0.71;86.00;101218.63;5035785;28;20450;-72
2021/12/23 04:35:22;;;;;;;0.40;0.30;;;;;;;-0.66;86.16;101216.19;5036754;28;20482;-72
2021/12/23 04:37:50;;;;;;;0.40;0.30;;;;;;;-0.64;86.23;101211.47;5035515;28;20444;-72
2021/12/23 04:40:17;;;;;;;0.40;0.30;;;;;;;-0.62;86.98;101206.72;5035210;28;21000;-72
2021/12/23 04:42:44;;;;;;;0.40;0.30;;;;;;;-0.56;87.61;101195.25;5035227;28;20818;-72
2021/12/23 04:45:11;;;;;;;0.40;0.30;;;;;;;-0.48;88.12;101184.38;5035429;28;20463;-72
2021/12/23 04:47:38;;;;;;;0.40;0.30;;;;;;;-0.44;88.34;101177.59;5035442;28;20450;-72
2021/12/23 04:50:08;;;;;;;0.40;0.30;;;;;;;-0.41;88.20;101174.50;5035370;28;20447;-72
2021/12/23 04:52:34;;;;;;;0.40;0.27;;;;;;;-0.37;87.62;101185.53;5035462;28;20435;-72
2021/12/23 04:55:02;;;;;;;0.47;0.37;;;;;;;-0.35;87.29;101178.97;5035533;28;20462;-72
2021/12/23 04:57:29;;;;;;;0.40;0.30;;;;;;;-0.36;87.46;101174.66;5035294;28;20450;-72
2021/12/23 04:59:55;;;;;;;0.40;0.30;;;;;;;-0.40;87.61;101162.84;5035074;28;20459;-72
2021/12/23 05:02:22;;;;;;;1.00;1.00;;;;;;;-0.33;87.15;101165.44;5035146;28;20443;-72
2021/12/23 05:04:50;;;;;;;0.40;0.30;;;;;;;-0.33;87.10;101139.66;5035072;28;20467;-72
2021/12/23 05:07:17;;;;;;;0.40;0.30;;;;;;;-0.46;86.71;101133.59;5035101;28;20447;-72
2021/12/23 05:09:43;;;;;;;0.40;0.30;;;;;;;-0.43;86.60;101125.19;5035012;28;20439;-72
2021/12/23 05:12:12;;;;;;;0.40;0.30;;;;;;;-0.41;85.50;101120.47;5034644;28;20933;-71
2021/12/23 05:14:38;;;;;;;0.40;0.30;;;;;;;-0.38;85.90;101139.47;5034891;28;20466;-72
2021/12/23 05:17:05;;;;;;;0.40;0.27;;;;;;;-0.36;86.61;101140.06;5034882;28;20443;-72
2021/12/23 05:19:31;;;;;;;0.40;0.30;;;;;;;-0.36;85.49;101156.03;5034830;28;20450;-72
2021/12/23 05:21:58;;;;;;;0.40;0.30;;;;;;;-0.26;86.25;101158.25;5034665;28;20521;-72
2021/12/23 05:24:24;;;;;;;0.77;0.77;;;;;;;-0.35;85.57;101147.03;5034712;28;20521;-72
2021/12/23 05:26:50;;;;;;;0.40;0.20;;;;;;;-0.41;85.13;101147.06;5034358;28;20446;-73
2021/12/23 05:29:18;;;;;;;0.40;0.30;;;;;;;-0.33;85.26;101133.50;5034631;28;20474;-73
2021/12/23 05:31:45;;;;;;;0.40;0.30;;;;;;;-0.35;85.18;101123.09;5034603;28;20443;-73
2021/12/23 05:34:11;;;;;;;0.40;0.30;;;;;;;-0.35;85.92;101112.44;5034188;28;20508;-72
2021/12/23 05:36:38;;;;;;;0.40;0.30;;;;;;;-0.36;86.05;101117.97;5034610;28;20538;-72
2021/12/23 05:39:05;;;;;;;1.67;1.57;;;;;;;-0.38;84.61;101109.41;5034511;28;20478;-72
2021/12/23 05:41:31;;;;;;;0.40;0.30;;;;;;;-0.35;85.63;101109.78;5034353;28;20487;-72
2021/12/23 05:43:59;;;;;;;2.53;2.43;;;;;;;-0.28;85.57;101099.88;5034301;28;20541;-72
2021/12/23 05:46:27;;;;;;;0.87;0.87;;;;;;;-0.23;85.93;101096.56;5034338;28;20439;-72
2021/12/23 05:48:53;;;;;;;0.40;0.30;;;;;;;-0.31;85.50;101092.34;5034303;28;20545;-72
2021/12/23 05:51:20;;;;;;;0.40;0.30;;;;;;;-0.35;85.39;101095.66;5034250;28;20442;-72
2021/12/23 05:53:46;;;;;;;0.40;0.30;;;;;;;-0.32;85.21;101093.38;5034186;28;20451;-72
2021/12/23 05:56:13;;;;;;;0.40;0.30;;;;;;;-0.32;84.72;101098.69;5033801;28;20932;-73
2021/12/23 05:58:40;;;;;;;0.40;0.30;;;;;;;-0.25;84.70;101090.66;5034302;28;20451;-73
2021/12/23 06:01:06;;;;;;;0.40;0.30;;;;;;;-0.24;84.82;101086.16;5033925;28;20479;-73
2021/12/23 06:03:34;;;;;;;0.40;0.30;;;;;;;-0.18;85.71;101077.28;5033915;28;20470;-72
2021/12/23 06:06:01;;;;;;;3.90;3.60;;;;;;;-0.10;86.12;101077.03;5033942;28;20439;-72
2021/12/23 06:08:27;;;;;;;0.40;0.30;;;;;;;-0.11;85.94;101065.56;5033979;28;20442;-71
2021/12/23 06:10:53;;;;;;;0.40;0.30;;;;;;;-0.17;84.68;101063.78;5033849;28;20485;-70
2021/12/23 06:13:20;;;;;;;0.40;0.30;;;;;;;-0.19;85.09;101057.03;5033437;28;20451;-69
2021/12/23 06:15:46;;;;;;;0.40;0.30;;;;;;;-0.20;85.42;101066.06;5033801;28;20443;-72
2021/12/23 06:18:13;;;;;;;0.40;0.30;;;;;;;-0.13;85.64;101064.16;5033675;28;20443;-73
2021/12/23 06:20:41;;;;;;;0.40;0.30;;;;;;;-0.11;85.29;101062.91;5033258;28;20992;-73
2021/12/23 06:23:07;;;;;;;0.40;0.30;;;;;;;-0.18;84.53;101056.00;5033581;28;20443;-73
2021/12/23 06:25:34;;;;;;;0.40;0.40;;;;;;;-0.13;84.94;101050.84;5033644;28;20450;-73
2021/12/23 06:28:00;;;;;;;0.40;0.30;;;;;;;-0.10;85.74;101042.41;5033334;28;20847;-72
2021/12/23 06:30:26;;;;;;;0.40;0.30;;;;;;;-0.22;85.23;101045.00;5033617;28;20443;-73
2021/12/23 06:32:54;;;;;;;3.43;3.23;;;;;;;-0.22;84.73;101028.19;5033575;28;20443;-73
2021/12/23 06:35:24;;;;;;;0.80;0.80;;;;;;;-0.23;85.07;101039.88;5033095;28;20474;-73
2021/12/23 06:37:52;;;;;;;0.40;0.30;;;;;;;-0.31;84.68;101036.47;5033433;28;20458;-73
2021/12/23 06:40:19;;;;;;;0.40;0.30;;;;;;;-0.30;84.38;101037.28;5033438;28;20821;-73
2021/12/23 06:42:46;;;;;;;0.40;0.30;;;;;;;-0.25;85.04;101029.44;5032918;28;20447;-73
2021/12/23 06:45:14;;;;;;;6.17;4.03;;;;;;;-0.19;85.20;101025.09;5033047;28;20995;-73
2021/12/23 06:47:41;;;;;;;0.40;0.30;;;;;;;-0.20;84.30;101026.13;5032645;28;20451;-72
2021/12/23 06:50:10;;;;;;;0.40;0.30;;;;;;;-0.16;84.20;101019.34;5033318;28;20450;-73
2021/12/23 06:52:37;;;;;;;0.40;0.30;;;;;;;-0.21;84.58;101013.88;5033264;28;20979;-73
2021/12/23 06:55:06;;;;;;;0.40;0.30;;;;;;;-0.24;84.59;100996.47;5033265;28;20455;-73
2021/12/23 06:57:33;;;;;;;0.40;0.30;;;;;;;-0.20;85.54;101000.31;5033251;28;20458;-73
2021/12/23 06:59:59;;;;;;;0.40;0.30;;;;;;;-0.10;86.19;100995.31;5033230;28;20451;-72
2021/12/23 07:02:26;;;;;;;0.40;0.30;;;;;;;0.02;85.66;100995.41;5032745;28;20863;-73
2021/12/23 07:04:53;;;;;;;0.40;0.30;;;;;;;0.02;86.10;100983.94;5033101;28;20893;-73
2021/12/23 07:07:26;;;;;;;0.40;0.30;;;;;;;0.03;86.56;100999.69;5032892;28;20952;-71
2021/12/23 07:09:54;;;;;;;0.40;0.30;;;;;;;0.14;85.34;101011.47;5033316;28;20513;-70
2021/12/23 07:12:23;;;;;;;0.40;0.30;;;;;;;0.16;84.78;100998.72;5032769;28;20941;-71
2021/12/23 07:14:50;;;;;;;0.40;0.30;;;;;;;0.18;84.78;101002.81;5033020;28;20470;-71
2021/12/23 07:17:17;;;;;;;1.93;1.80;;;;;;;0.18;84.45;101012.66;5033040;28;20482;-70
2021/12/23 07:19:44;;;;;;;0.50;0.50;;;;;;;0.09;84.68;101016.63;5032964;28;20538;-70
2021/12/23 07:22:10;;;;;;;0.50;0.50;;;;;;;0.09;85.23;100997.97;5032913;28;20491;-71
2021/12/23 07:24:36;;;;;;;0.40;0.30;;;;;;;0.17;85.08;100993.16;5032972;28;20463;-71
2021/12/23 07:27:03;;;;;;;0.40;0.30;;;;;;;0.16;84.70;100983.56;5032962;28;20447;-71
2021/12/23 07:29:32;;;;;;;17.33;16.40;;;;;;;0.10;84.03;100989.78;5032675;28;20955;-71
2021/12/23 07:31:59;;;;;;;0.40;0.30;;;;;;;0.14;83.93;100980.31;5033248;28;20849;-71
2021/12/23 07:34:26;;;;;;;0.40;0.30;;;;;;;0.18;83.68;100986.84;5032524;28;20548;-71
2021/12/23 07:36:53;;;;;;;0.40;0.30;;;;;;;0.13;83.43;100978.66;5032834;28;20944;-71
2021/12/23 07:39:19;;;;;;;1.07;1.07;;;;;;;0.11;84.47;100975.44;5032916;28;20443;-71
2021/12/23 07:41:45;;;;;;;0.40;0.30;;;;;;;0.18;83.72;100973.50;5032795;28;20483;-71
2021/12/23 07:44:20;;;;;;;0.40;0.30;;;;;;;0.20;83.60;100963.44;5032790;28;20459;-71
2021/12/23 07:46:49;;;;;;;1.10;1.10;;;;;;;0.21;83.99;100961.59;5032576;28;20904;-71
2021/12/23 07:49:15;;;;;;;1.70;1.60;;;;;;;0.21;83.74;100972.25;5032869;28;20443;-71
2021/12/23 07:51:42;;;;;;;0.40;0.30;;;;;;;0.16;83.69;100970.25;5032241;28;20447;-71
2021/12/23 07:54:08;;;;;;;0.40;0.30;;;;;;;0.17;84.14;100955.88;5032598;28;20470;-70
2021/12/23 07:56:36;;;;;;;0.40;0.30;;;;;;;0.23;83.64;100955.00;5032463;28;20443;-71
2021/12/23 07:59:03;;;;;;;0.40;0.30;;;;;;;0.24;83.73;100959.28;5032173;28;20932;-70
2021/12/23 08:01:29;;;;;;;0.40;0.30;;;;;;;0.25;83.62;100950.25;5035613;28;20556;-70
2021/12/23 08:03:57;;;;;;;0.40;0.30;;;;;;;0.26;83.94;100943.06;5035370;28;20463;-70
2021/12/23 08:06:23;;;;;;;0.40;0.30;;;;;;;0.27;83.68;100935.91;5035820;28;20443;-70
2021/12/23 08:08:50;;;;;;;1.13;1.13;;;;;;;0.33;83.97;100929.69;5036409;28;20497;-70
2021/12/23 08:11:16;;;;;;;0.50;0.43;;;;;;;0.28;83.67;100937.53;5036380;28;20474;-70
2021/12/23 08:13:43;;;;;;;0.40;0.30;;;;;;;0.30;83.48;100927.47;5035786;28;21002;-70
2021/12/23 08:16:09;;;;;;;0.50;0.40;;;;;;;0.30;84.11;100917.63;5036156;28;20442;-70
2021/12/23 08:18:36;;;;;;;0.40;0.30;;;;;;;0.31;83.57;100915.75;5036318;28;20447;-70
2021/12/23 08:21:07;;;;;;;0.40;0.30;;;;;;;0.38;83.84;100911.97;5035542;28;20439;-70
2021/12/23 08:23:33;;;;;;;1.80;1.70;;;;;;;0.40;84.30;100901.09;5035198;28;21029;-69
2021/12/23 08:26:03;;;;;;;0.40;0.30;;;;;;;0.47;84.04;100909.81;5035872;28;20496;-71
2021/12/23 08:28:30;;;;;;;0.40;0.30;;;;;;;0.52;83.31;100896.63;5035522;28;20975;-71
2021/12/23 08:30:57;;;;;;;0.40;0.30;;;;;;;0.52;82.31;100888.63;5035847;28;20875;-71
2021/12/23 08:33:24;;;;;;;0.40;0.30;;;;;;;0.58;82.64;100885.06;5035612;28;20467;-71
2021/12/23 08:35:50;;;;;;;0.40;0.30;;;;;;;0.52;82.54;100885.16;5035850;28;20434;-71
2021/12/23 08:38:18;;;;;;;0.93;0.83;;;;;;;0.57;83.23;100882.63;5035751;28;20435;-69
2021/12/23 08:40:45;;;;;;;0.40;0.30;;;;;;;0.61;83.41;100868.59;5035499;28;20446;-71
2021/12/23 08:43:12;;;;;;;0.40;0.30;;;;;;;0.62;83.28;100875.59;5035417;28;20482;-71
2021/12/23 08:45:39;;;;;;;0.40;0.20;;;;;;;0.59;83.42;100872.56;5035570;28;20497;-71
2021/12/23 08:48:06;;;;;;;0.40;0.30;;;;;;;0.62;83.33;100867.59;5035409;28;20451;-71
2021/12/23 08:50:33;;;;;;;0.40;0.33;;;;;;;0.66;83.20;100873.25;5035529;28;20443;-71
2021/12/23 08:53:00;;;;;;;0.40;0.30;;;;;;;0.64;83.28;100860.16;5035502;28;20453;-70
2021/12/23 08:55:31;;;;;;;0.40;0.23;;;;;;;0.68;82.38;100857.88;5035079;28;20459;-71
2021/12/23 08:57:59;;;;;;;0.40;0.30;;;;;;;0.60;83.17;100859.00;5035438;28;20463;-72
2021/12/23 09:00:26;;;;;;;0.40;0.30;;;;;;;0.65;83.00;100861.78;5035430;28;20443;-70
2021/12/23 09:02:53;;;;;;;0.40;0.30;;;;;;;0.74;82.78;100860.41;5035197;28;20483;-69
2021/12/23 09:05:20;;;;;;;0.40;0.30;;;;;;;0.73;83.04;100845.47;5035143;28;20458;-70
2021/12/23 09:07:47;;;;;;;0.40;0.30;;;;;;;0.78;82.94;100835.97;5034913;28;20807;-69
2021/12/23 09:10:14;;;;;;;0.40;0.30;;;;;;;0.81;82.26;100828.31;5034659;28;20944;-69
2021/12/23 09:12:43;;;;;;;14.10;13.30;;;;;;;0.86;82.47;100827.63;5034937;28;20435;-69
2021/12/23 09:15:11;;;;;;;0.80;0.80;;;;;;;0.89;82.48;100821.84;5035008;28;20459;-69
2021/12/23 09:17:42;;;;;;;0.40;0.40;;;;;;;0.88;82.71;100814.88;5034883;28;20455;-69
2021/12/23 09:20:14;;;;;;;0.40;0.30;;;;;;;0.94;82.24;100804.09;5034941;28;20505;-70
2021/12/23 09:22:41;;;;;;;0.40;0.30;;;;;;;0.95;82.09;100797.72;5034809;28;20467;-70
2021/12/23 09:25:18;;;;;;;0.40;0.30;;;;;;;1.01;81.34;100798.66;5034756;28;20470;-70
2021/12/23 09:27:58;;;;;;;0.40;0.30;;;;;;;1.00;81.02;100797.84;5034839;28;20431;-70
2021/12/23 09:33:10;;;;;;;0.40;0.40;;;;;;;1.01;81.97;100790.63;5034720;28;20911;-70
2021/12/23 09:35:38;;;;;;;0.40;0.20;;;;;;;1.09;82.22;100790.28;5034435;28;20431;-70
2021/12/23 09:38:06;;;;;;;0.50;0.30;;;;;;;1.06;80.27;100772.06;5034574;28;20867;-69
2021/12/23 09:40:33;;;;;;;0.40;0.20;;;;;;;0.99;80.60;100758.06;5034558;28;20450;-69
2021/12/23 09:43:04;;;;;;;0.50;0.40;;;;;;;1.02;80.26;100770.94;5034415;28;20478;-69
2021/12/23 09:45:33;;;;;;;0.40;0.30;;;;;;;0.99;80.48;100766.06;5034850;28;20435;-69
2021/12/23 09:48:02;;;;;;;0.40;0.30;;;;;;;0.93;80.59;100761.66;5034340;28;20470;-69
2021/12/23 09:50:31;;;;;;;0.40;0.30;;;;;;;0.95;81.04;100754.25;5034386;28;20450;-69
2021/12/23 09:53:00;;;;;;;0.40;0.30;;;;;;;0.96;81.12;100738.00;5034322;28;20435;-69
2021/12/23 09:55:28;;;;;;;0.40;0.30;;;;;;;0.90;81.33;100738.13;5033885;28;20473;-69
2021/12/23 09:57:58;;;;;;;0.50;0.43;;;;;;;0.95;81.22;100730.25;5034166;28;20450;-69
2021/12/23 10:00:30;;;;;;;0.50;0.40;;;;;;;0.97;81.09;100723.66;5034225;28;20830;-68
2021/12/23 10:02:57;;;;;;;0.40;0.30;;;;;;;0.99;80.81;100713.53;5033782;28;20506;-69
2021/12/23 10:05:26;;;;;;;0.40;0.30;;;;;;;1.05;81.37;100714.47;5033658;28;20456;-69
2021/12/23 10:07:54;;;;;;;0.40;0.20;;;;;;;1.13;81.91;100711.44;5034009;28;20451;-69
2021/12/23 10:10:27;;;;;;;0.40;0.30;;;;;;;1.19;81.23;100697.13;5033748;28;21018;-69
2021/12/23 10:38:34;;;;;;;0.40;0.30;;;;;;;1.43;78.86;100588.47;5018728;28;20441;-69
2021/12/23 10:41:05;;;;;;;0.40;0.30;;;;;;;1.40;78.74;100593.47;5033575;28;20450;-69
2021/12/23 10:43:35;;;;;;;0.40;0.30;;;;;;;1.48;79.09;100569.88;5033404;28;20494;-69
2021/12/23 10:46:04;;;;;;;0.40;0.30;;;;;;;1.53;78.86;100563.81;5033296;28;20439;-69
2021/12/23 10:48:34;;;;;;;0.40;0.30;;;;;;;1.60;78.87;100550.34;5033504;28;20443;-69
2021/12/23 10:51:06;;;;;;;0.40;0.30;;;;;;;1.60;78.86;100540.47;5033289;28;20443;-69
2021/12/23 10:53:45;;;;;;;0.40;0.30;;;;;;;1.58;78.87;100539.88;5033355;28;20467;-69
2021/12/23 10:59:05;;;;;;;0.40;0.30;;;;;;;1.58;78.54;100534.53;5032570;28;20407;-69
2021/12/23 11:01:36;;;;;;;0.40;0.30;;;;;;;1.59;78.06;100530.00;5033081;28;20439;-69
2021/12/23 11:04:06;;;;;;;0.40;0.20;;;;;;;1.58;78.60;100521.19;5033180;28;20514;-69
2021/12/23 11:06:37;;;;;;;0.40;0.27;;;;;;;1.57;78.87;100530.25;5033436;28;21059;-70
2021/12/23 11:09:30;;;;;;;0.40;0.30;;;;;;;1.59;78.75;100512.13;5032787;28;20882;-70
2021/12/23 11:27:20;;;;;;;0.40;0.30;;;;;;;1.62;77.29;100511.66;5033044;28;20423;-69
2021/12/23 11:37:55;;;;;;;0.40;0.30;;;;;;;1.73;77.59;100540.13;5036700;28;20430;-69
2021/12/23 11:40:51;;;;;;;0.40;0.20;;;;;;;1.77;78.04;100525.25;5036815;28;20856;-69
2021/12/23 11:43:44;;;;;;;0.40;0.30;;;;;;;1.82;78.08;100531.72;5036551;28;20486;-69
2021/12/23 11:46:11;;;;;;;0.40;0.27;;;;;;;1.86;78.51;100528.31;5036584;28;20442;-69
2021/12/23 11:48:42;;;;;;;0.40;0.20;;;;;;;1.83;78.10;100528.00;5036765;28;20450;-70
2021/12/23 11:51:15;;;;;;;2.03;1.93;;;;;;;1.88;77.76;100512.84;5036697;28;20431;-69
2021/12/23 11:53:47;;;;;;;0.40;0.30;;;;;;;1.96;77.76;100506.28;5036837;28;20822;-70
2021/12/23 11:56:15;;;;;;;0.40;0.30;;;;;;;2.02;77.32;100500.75;5036291;28;20924;-70
2021/12/23 11:58:43;;;;;;;0.40;0.30;;;;;;;2.17;77.13;100497.50;5036289;28;20450;-70
2021/12/23 12:01:14;;;;;;;0.40;0.30;;;;;;;2.26;76.06;100484.50;5036441;28;20470;-72
2021/12/23 12:03:54;;;;;;;0.40;0.30;;;;;;;2.32;76.26;100472.00;5036077;28;20487;-69
2021/12/23 12:06:24;;;;;;;0.40;0.33;;;;;;;2.38;76.35;100465.66;5036098;28;20430;-69
2021/12/23 12:08:55;;;;;;;0.47;0.47;;;;;;;2.42;76.34;100461.44;5036258;28;20558;-69
2021/12/23 12:11:24;;;;;;;0.40;0.30;;;;;;;2.47;75.70;100448.13;5036344;28;20471;-69
2021/12/23 12:13:51;;;;;;;0.40;0.30;;;;;;;2.50;75.39;100444.97;5035952;28;20968;-69
2021/12/23 12:16:30;;;;;;;0.40;0.20;;;;;;;2.48;75.57;100425.72;5035921;28;20937;-69
2021/12/23 12:18:57;;;;;;;0.40;0.30;;;;;;;2.49;75.07;100421.97;5036466;28;20514;-70
2021/12/23 12:21:28;;;;;;;0.40;0.30;;;;;;;2.45;75.34;100424.31;5036163;28;20814;-69
2021/12/23 12:24:15;;;;;;;0.40;0.20;;;;;;;2.51;75.09;100419.84;5036002;28;20570;-69
2021/12/23 12:26:57;;;;;;;0.40;0.30;;;;;;;2.46;75.50;100430.47;5036014;28;21020;-69
2021/12/23 12:29:33;;;;;;;0.40;0.30;;;;;;;2.44;75.90;100430.75;5035992;28;20856;-69
2021/12/23 12:32:03;;;;;;;0.70;0.70;;;;;;;2.45;75.52;100407.50;5035941;28;20801;-69